地図

経路データ

SID SEASON NUMBER BASIN SUBBASIN NAME ISO_TIME NATURE LAT LON WMO_WIND WMO_PRES WMO_AGENCY TRACK_TYPE DIST2LAND LANDFALL IFLAG USA_AGENCY USA_ATCF_ID USA_LAT USA_LON USA_RECORD USA_STATUS USA_WIND USA_PRES USA_SSHS USA_R34_NE USA_R34_SE USA_R34_SW USA_R34_NW USA_R50_NE USA_R50_SE USA_R50_SW USA_R50_NW USA_R64_NE USA_R64_SE USA_R64_SW USA_R64_NW USA_POCI USA_ROCI USA_RMW USA_EYE TOKYO_LAT TOKYO_LON TOKYO_GRADE TOKYO_WIND TOKYO_PRES TOKYO_R50_DIR TOKYO_R50_LONG TOKYO_R50_SHORT TOKYO_R30_DIR TOKYO_R30_LONG TOKYO_R30_SHORT TOKYO_LAND CMA_LAT CMA_LON CMA_CAT CMA_WIND CMA_PRES HKO_LAT HKO_LON HKO_CAT HKO_WIND HKO_PRES NEWDELHI_LAT NEWDELHI_LON NEWDELHI_GRADE NEWDELHI_WIND NEWDELHI_PRES NEWDELHI_CI NEWDELHI_DP NEWDELHI_POCI REUNION_LAT REUNION_LON REUNION_TYPE REUNION_WIND REUNION_PRES REUNION_TNUM REUNION_CI REUNION_RMW REUNION_R34_NE REUNION_R34_SE REUNION_R34_SW REUNION_R34_NW REUNION_R50_NE REUNION_R50_SE REUNION_R50_SW REUNION_R50_NW REUNION_R64_NE REUNION_R64_SE REUNION_R64_SW REUNION_R64_NW BOM_LAT BOM_LON BOM_TYPE BOM_WIND BOM_PRES BOM_TNUM BOM_CI BOM_RMW BOM_R34_NE BOM_R34_SE BOM_R34_SW BOM_R34_NW BOM_R50_NE BOM_R50_SE BOM_R50_SW BOM_R50_NW BOM_R64_NE BOM_R64_SE BOM_R64_SW BOM_R64_NW BOM_ROCI BOM_POCI BOM_EYE BOM_POS_METHOD BOM_PRES_METHOD NADI_LAT NADI_LON NADI_CAT NADI_WIND NADI_PRES WELLINGTON_LAT WELLINGTON_LON WELLINGTON_WIND WELLINGTON_PRES DS824_LAT DS824_LON DS824_STAGE DS824_WIND DS824_PRES TD9636_LAT TD9636_LON TD9636_STAGE TD9636_WIND TD9636_PRES TD9635_LAT TD9635_LON TD9635_WIND TD9635_PRES TD9635_ROCI NEUMANN_LAT NEUMANN_LON NEUMANN_CLASS NEUMANN_WIND NEUMANN_PRES MLC_LAT MLC_LON MLC_CLASS MLC_WIND MLC_PRES USA_GUST BOM_GUST BOM_GUST_PER REUNION_GUST REUNION_GUST_PER USA_SEAHGT USA_SEARAD_NE USA_SEARAD_SE USA_SEARAD_SW USA_SEARAD_NW STORM_SPEED STORM_DIR
1880289N31299 1880 30 NA NA NOT_NAMED 1880-10-15 00:00:00 TS 31.0000 -60.6000 spur-other 1452 1452 _____________O -1 31.0000 -60.6000 HU 70 9 114
1880289N31299 1880 30 NA NA NOT_NAMED 1880-10-15 03:00:00 TS 30.8079 -60.0946 spur-other 1486 1486 _____________P -1 30.8035 -60.0197 HU 65 10 113
1880289N31299 1880 30 NA NA NOT_NAMED 1880-10-15 06:00:00 TS 30.6000 -59.5000 spur-other 1495 1488 _____________O -1 30.6000 -59.5000 TS 60 10 114
1880289N31299 1880 30 NA NA NOT_NAMED 1880-10-15 09:00:00 TS 30.4038 -59.0522 spur-other 1492 1491 _____________P -1 30.4038 -59.0522 TS 57 9 109
1880289N31299 1880 30 NA NA NOT_NAMED 1880-10-15 12:00:00 TS 30.3000 -58.5000 spur-other 1510 1510 _____________O -1 30.3000 -58.5000 TS 55 12 92
1880289N31299 1880 30 NA NA NOT_NAMED 1880-10-15 15:00:00 TS 30.3706 -57.6534 spur-other 1559 1559 _____________P -1 30.3706 -57.6534 TS 52 16 83
1880289N31299 1880 30 NA NA NOT_NAMED 1880-10-15 18:00:00 TS 30.5000 -56.7000 spur-other 1622 1622 _____________O -1 30.5000 -56.7000 TS 50 15 85
1880289N31299 1880 30 NA NA NOT_NAMED 1880-10-15 21:00:00 TS 30.5105 -55.9004 spur-other 1667 1667 _____________P -1 30.5105 -55.9004 TS 50 15 86
1880289N31299 1880 30 NA NA NOT_NAMED 1880-10-16 00:00:00 TS 30.6000 -55.0000 spur-other 1698 1698 _____________O -1 30.6000 -55.0000 TS 50 18 78
1880289N31299 1880 30 NA NA NOT_NAMED 1880-10-16 03:00:00 TS 30.9054 -53.8110 spur-other 1713 1704 _____________P -1 30.9054 -53.8110 TS 47 23 72
1880289N31299 1880 30 NA NA NOT_NAMED 1880-10-16 06:00:00 TS 31.3000 -52.5000 spur-other 1704 1676 _____________O -1 31.3000 -52.5000 TS 45 22 72
1880289N31299 1880 30 NA NA NOT_NAMED 1880-10-16 09:00:00 TS 31.5869 -51.3051 spur-other 1677 1646 _____________P -1 31.5869 -51.3051 TS 45 22 72
1880289N31299 1880 30 NA NA NOT_NAMED 1880-10-16 12:00:00 TS 32.0000 -50.0000 spur-other 1647 1604 _____________O -1 32.0000 -50.0000 TS 45 27 66
1880289N31299 1880 30 NA NA NOT_NAMED 1880-10-16 15:00:00 TS 32.6904 -48.4039 spur-other 1599 1554 _____________P -1 32.6904 -48.4039 TS 45 32 62
1880289N31299 1880 30 NA NA NOT_NAMED 1880-10-16 18:00:00 TS 33.5000 -46.7000 spur-other 1557 1537 _____________O -1 33.5000 -46.7000 TS 45 31 62
1880289N31299 1880 30 NA NA NOT_NAMED 1880-10-16 21:00:00 TS 34.1725 -45.0922 spur-other 1537 1524 _____________P -1 34.1725 -45.0922 TS 42 30 60
1880289N31299 1880 30 NA NA NOT_NAMED 1880-10-17 00:00:00 TS 35.0000 -43.5000 spur-other 1523 1495 _____________O -1 35.0000 -43.5000 TS 40 33 53
1880289N31299 1880 30 NA NA NOT_NAMED 1880-10-17 03:00:00 TS 36.1736 -41.8498 spur-other 1492 1465 _____________P -1 36.1736 -41.8498 TS 40 37 47
1880289N31299 1880 30 NA NA NOT_NAMED 1880-10-17 06:00:00 TS 37.5000 -40.2000 spur-other 1469 1462 _____________O -1 37.5000 -40.2000 TS 40 37 45
1880289N31299 1880 30 NA NA NOT_NAMED 1880-10-17 09:00:00 TS 38.7785 -38.5960 spur-other 1466 1466 _____________P -1 38.7785 -38.5960 TS 37 35 45
1880289N31299 1880 30 NA NA NOT_NAMED 1880-10-17 12:00:00 TS 40.0000 -37.0000 spur-other 1489 _____________O -1 40.0000 -37.0000 TS 35 35 45

IBTrACS Databaseについて

本データベースは、米国NOAAが公開する1842年以降の世界の熱帯低気圧のベストトラックデータアーカイブInternational Best Track Archive for Climate Stewardship (IBTrACS)を、ウェブで閲覧しやすい形式に変換したものです。

最終更新日:2021-10-27